Matad, Mongolia
Current Conditions -  °F | °C
As of 8:00 AM on Wednesday 22 Oct 2014 (Local Time) from UIAA Reporting Station
Broken Clouds Broken Clouds  
Wind Chill: 12°   Ceiling: 20000
Heat Index: 12°   Visibility: 6mi
Dew Point:   Wind: 0mph
Humidity: 85%   Direction: NA
Pressure: 29.85"   Gusts: NA
Location:  47.13°N, 115.64°E
Report Text: UIAA 220000Z 00000MPS 9999 BKN200 M11/M13 Q1011 NOSIG RMKQFE700 29CLRD70
Loading
Personal Weather Stations






























Interactive Weather Map
Tropical Storm Tracking
New forecast layout! Learn more

10-Day Weather Forecast

Advertisements
Track Severe Weather on mobile